sensor_id;sensor_type;location;lat;lon;timestamp;pressure;altitude;pressure_sealevel;temperature;humidity
76611;BME280;65503;48.534;9.062;2024-01-06T00:02:13;95791.56;;;8.14;69.60
76611;BME280;65503;48.534;9.062;2024-01-06T00:04:40;95797.56;;;8.15;69.92
76611;BME280;65503;48.534;9.062;2024-01-06T00:07:06;95806.16;;;8.10;70.17
76611;BME280;65503;48.534;9.062;2024-01-06T00:09:33;95805.38;;;8.10;70.06
76611;BME280;65503;48.534;9.062;2024-01-06T00:11:59;95807.69;;;8.06;70.50
76611;BME280;65503;48.534;9.062;2024-01-06T00:14:26;95805.25;;;8.00;70.55
76611;BME280;65503;48.534;9.062;2024-01-06T00:16:52;95806.03;;;8.00;71.09
76611;BME280;65503;48.534;9.062;2024-01-06T00:19:19;95809.69;;;7.99;71.06
76611;BME280;65503;48.534;9.062;2024-01-06T00:21:45;95809.69;;;7.99;71.10
76611;BME280;65503;48.534;9.062;2024-01-06T00:24:12;95813.88;;;8.00;71.38
76611;BME280;65503;48.534;9.062;2024-01-06T00:26:38;95809.69;;;7.99;71.49
76611;BME280;65503;48.534;9.062;2024-01-06T00:29:05;95810.19;;;7.96;71.35
76611;BME280;65503;48.534;9.062;2024-01-06T00:31:32;95811.28;;;8.00;71.11
76611;BME280;65503;48.534;9.062;2024-01-06T00:33:58;95808.88;;;7.99;71.19
76611;BME280;65503;48.534;9.062;2024-01-06T00:36:25;95811.78;;;7.97;71.58
76611;BME280;65503;48.534;9.062;2024-01-06T00:38:52;95813.34;;;7.98;71.50
76611;BME280;65503;48.534;9.062;2024-01-06T00:41:18;95808.81;;;7.94;71.71
76611;BME280;65503;48.534;9.062;2024-01-06T00:43:45;95821.44;;;7.97;71.36
76611;BME280;65503;48.534;9.062;2024-01-06T00:46:11;95819.69;;;8.02;70.78
76611;BME280;65503;48.534;9.062;2024-01-06T00:48:38;95821.75;;;8.00;71.46
76611;BME280;65503;48.534;9.062;2024-01-06T00:51:06;95817.00;;;7.97;71.05
76611;BME280;65503;48.534;9.062;2024-01-06T00:53:32;95823.50;;;7.95;70.88
76611;BME280;65503;48.534;9.062;2024-01-06T00:55:59;95821.25;;;8.03;70.40
76611;BME280;65503;48.534;9.062;2024-01-06T00:58:25;95823.28;;;7.96;70.19
76611;BME280;65503;48.534;9.062;2024-01-06T01:00:52;95817.97;;;7.91;70.55
76611;BME280;65503;48.534;9.062;2024-01-06T01:03:18;95824.78;;;7.92;70.31
76611;BME280;65503;48.534;9.062;2024-01-06T01:05:45;95832.88;;;7.91;70.27
76611;BME280;65503;48.534;9.062;2024-01-06T01:08:11;95824.78;;;7.92;69.88
76611;BME280;65503;48.534;9.062;2024-01-06T01:10:38;95831.75;;;7.86;70.07
76611;BME280;65503;48.534;9.062;2024-01-06T01:13:05;95822.56;;;7.84;70.29
76611;BME280;65503;48.534;9.062;2024-01-06T01:15:31;95823.59;;;7.83;70.05
76611;BME280;65503;48.534;9.062;2024-01-06T01:17:58;95825.13;;;7.79;70.10
76611;BME280;65503;48.534;9.062;2024-01-06T01:20:25;95837.19;;;7.80;70.22
76611;BME280;65503;48.534;9.062;2024-01-06T01:22:51;95830.81;;;7.76;70.02
76611;BME280;65503;48.534;9.062;2024-01-06T01:25:18;95841.28;;;7.76;69.21
76611;BME280;65503;48.534;9.062;2024-01-06T01:27:44;95842.16;;;7.81;68.91
76611;BME280;65503;48.534;9.062;2024-01-06T01:30:11;95840.84;;;7.79;69.26
76611;BME280;65503;48.534;9.062;2024-01-06T01:32:38;95844.47;;;7.78;69.00
76611;BME280;65503;48.534;9.062;2024-01-06T01:35:05;95847.81;;;7.73;69.17
76611;BME280;65503;48.534;9.062;2024-01-06T01:37:32;95841.00;;;7.72;68.63
76611;BME280;65503;48.534;9.062;2024-01-06T01:39:58;95851.78;;;7.76;68.46
76611;BME280;65503;48.534;9.062;2024-01-06T01:42:25;95855.41;;;7.75;69.14
76611;BME280;65503;48.534;9.062;2024-01-06T01:44:51;95853.84;;;7.74;68.90
76611;BME280;65503;48.534;9.062;2024-01-06T01:47:18;95857.50;;;7.73;69.33
76611;BME280;65503;48.534;9.062;2024-01-06T01:49:47;95869.56;;;7.74;69.86
76611;BME280;65503;48.534;9.062;2024-01-06T01:52:14;95874.31;;;7.77;69.44
76611;BME280;65503;48.534;9.062;2024-01-06T01:54:42;95874.00;;;7.73;69.85
76611;BME280;65503;48.534;9.062;2024-01-06T01:57:11;95870.03;;;7.71;70.13
76611;BME280;65503;48.534;9.062;2024-01-06T01:59:38;95874.16;;;7.67;69.89
76611;BME280;65503;48.534;9.062;2024-01-06T02:02:06;95870.91;;;7.60;69.85
76611;BME280;65503;48.534;9.062;2024-01-06T02:04:32;95876.06;;;7.55;69.95
76611;BME280;65503;48.534;9.062;2024-01-06T02:06:59;95879.38;;;7.50;69.85
76611;BME280;65503;48.534;9.062;2024-01-06T02:09:26;95871.75;;;7.48;70.03
76611;BME280;65503;48.534;9.062;2024-01-06T02:11:53;95876.19;;;7.48;70.53
76611;BME280;65503;48.534;9.062;2024-01-06T02:14:19;95880.97;;;7.51;70.04
76611;BME280;65503;48.534;9.062;2024-01-06T02:16:46;95882.88;;;7.56;70.07
76611;BME280;65503;48.534;9.062;2024-01-06T02:19:13;95887.63;;;7.59;70.04
76611;BME280;65503;48.534;9.062;2024-01-06T02:21:42;95890.00;;;7.60;69.57
76611;BME280;65503;48.534;9.062;2024-01-06T02:24:09;95893.50;;;7.66;69.73
76611;BME280;65503;48.534;9.062;2024-01-06T02:26:35;95892.06;;;7.75;69.27
76611;BME280;65503;48.534;9.062;2024-01-06T02:29:02;95894.78;;;7.80;69.47
76611;BME280;65503;48.534;9.062;2024-01-06T02:31:28;95894.53;;;7.81;69.11
76611;BME280;65503;48.534;9.062;2024-01-06T02:33:55;95893.50;;;7.82;69.00
76611;BME280;65503;48.534;9.062;2024-01-06T02:36:21;95896.69;;;7.84;69.21
76611;BME280;65503;48.534;9.062;2024-01-06T02:38:48;95892.47;;;7.83;69.51
76611;BME280;65503;48.534;9.062;2024-01-06T02:41:15;95882.72;;;7.79;69.25
76611;BME280;65503;48.534;9.062;2024-01-06T02:43:41;95884.00;;;7.76;69.58
76611;BME280;65503;48.534;9.062;2024-01-06T02:46:08;95888.13;;;7.72;69.60
76611;BME280;65503;48.534;9.062;2024-01-06T02:48:34;95888.56;;;7.69;70.09
76611;BME280;65503;48.534;9.062;2024-01-06T02:51:01;95898.81;;;7.71;70.11
76611;BME280;65503;48.534;9.062;2024-01-06T02:53:27;95894.63;;;7.70;70.04
76611;BME280;65503;48.534;9.062;2024-01-06T02:55:54;95898.81;;;7.71;70.21
76611;BME280;65503;48.534;9.062;2024-01-06T02:58:20;95897.50;;;7.68;70.12
76611;BME280;65503;48.534;9.062;2024-01-06T03:00:47;95898.75;;;7.66;70.29
76611;BME280;65503;48.534;9.062;2024-01-06T03:03:14;95899.22;;;7.63;70.54
76611;BME280;65503;48.534;9.062;2024-01-06T03:05:40;95894.00;;;7.63;70.57
76611;BME280;65503;48.534;9.062;2024-01-06T03:08:07;95887.16;;;7.62;70.45
76611;BME280;65503;48.534;9.062;2024-01-06T03:10:33;95883.03;;;7.66;70.09
76611;BME280;65503;48.534;9.062;2024-01-06T03:13:00;95885.44;;;7.67;70.03
76611;BME280;65503;48.534;9.062;2024-01-06T03:15:27;95886.69;;;7.65;69.72
76611;BME280;65503;48.534;9.062;2024-01-06T03:17:53;95879.41;;;7.67;69.71
76611;BME280;65503;48.534;9.062;2024-01-06T03:20:20;95880.19;;;7.67;70.00
76611;BME280;65503;48.534;9.062;2024-01-06T03:22:46;95882.72;;;7.62;70.13
76611;BME280;65503;48.534;9.062;2024-01-06T03:25:13;95879.53;;;7.60;69.01
76611;BME280;65503;48.534;9.062;2024-01-06T03:27:39;95881.94;;;7.62;68.44
76611;BME280;65503;48.534;9.062;2024-01-06T03:30:06;95885.81;;;7.59;69.09
76611;BME280;65503;48.534;9.062;2024-01-06T03:32:33;95877.66;;;7.56;69.10
76611;BME280;65503;48.534;9.062;2024-01-06T03:35:00;95873.66;;;7.53;69.98
76611;BME280;65503;48.534;9.062;2024-01-06T03:37:26;95870.16;;;7.47;70.02
76611;BME280;65503;48.534;9.062;2024-01-06T03:39:53;95881.91;;;7.45;69.73
76611;BME280;65503;48.534;9.062;2024-01-06T03:42:19;95876.34;;;7.41;70.00
76611;BME280;65503;48.534;9.062;2024-01-06T03:44:46;95878.44;;;7.39;69.98
76611;BME280;65503;48.534;9.062;2024-01-06T03:47:12;95879.22;;;7.40;70.00
76611;BME280;65503;48.534;9.062;2024-01-06T03:49:39;95884.91;;;7.37;70.05
76611;BME280;65503;48.534;9.062;2024-01-06T03:52:05;95882.22;;;7.32;70.50
76611;BME280;65503;48.534;9.062;2024-01-06T03:54:32;95880.38;;;7.32;70.38
76611;BME280;65503;48.534;9.062;2024-01-06T03:56:58;95885.31;;;7.29;70.17
76611;BME280;65503;48.534;9.062;2024-01-06T03:59:25;95880.31;;;7.27;70.16
76611;BME280;65503;48.534;9.062;2024-01-06T04:01:52;95888.69;;;7.29;70.16
76611;BME280;65503;48.534;9.062;2024-01-06T04:04:18;95887.94;;;7.29;70.40
76611;BME280;65503;48.534;9.062;2024-01-06T04:06:45;95887.13;;;7.28;70.08
76611;BME280;65503;48.534;9.062;2024-01-06T04:09:11;95889.50;;;7.30;69.71
76611;BME280;65503;48.534;9.062;2024-01-06T04:11:40;95896.53;;;7.29;69.68
76611;BME280;65503;48.534;9.062;2024-01-06T04:14:06;95891.72;;;7.21;70.07
76611;BME280;65503;48.534;9.062;2024-01-06T04:16:33;95905.63;;;7.10;70.84
76611;BME280;65503;48.534;9.062;2024-01-06T04:18:59;95898.31;;;7.12;70.73
76611;BME280;65503;48.534;9.062;2024-01-06T04:21:26;95906.44;;;7.11;70.66
76611;BME280;65503;48.534;9.062;2024-01-06T04:23:53;95906.09;;;7.07;71.24
76611;BME280;65503;48.534;9.062;2024-01-06T04:26:19;95906.56;;;7.04;71.65
76611;BME280;65503;48.534;9.062;2024-01-06T04:28:46;95913.38;;;7.05;71.41
76611;BME280;65503;48.534;9.062;2024-01-06T04:31:12;95904.97;;;7.03;71.38
76611;BME280;65503;48.534;9.062;2024-01-06T04:33:39;95902.84;;;7.00;71.51
76611;BME280;65503;48.534;9.062;2024-01-06T04:36:07;95903.50;;;6.95;71.98
76611;BME280;65503;48.534;9.062;2024-01-06T04:38:33;95897.47;;;6.95;71.97
76611;BME280;65503;48.534;9.062;2024-01-06T04:41:00;95905.81;;;6.92;71.90
76611;BME280;65503;48.534;9.062;2024-01-06T04:43:27;95903.97;;;6.92;71.55
76611;BME280;65503;48.534;9.062;2024-01-06T04:45:53;95911.59;;;6.94;71.32
76611;BME280;65503;48.534;9.062;2024-01-06T04:48:20;95909.44;;;6.91;71.14
76611;BME280;65503;48.534;9.062;2024-01-06T04:50:47;95910.81;;;6.93;71.31
76611;BME280;65503;48.534;9.062;2024-01-06T04:53:13;95918.97;;;6.97;71.33
76611;BME280;65503;48.534;9.062;2024-01-06T04:55:39;95921.28;;;6.93;71.31
76611;BME280;65503;48.534;9.062;2024-01-06T04:58:06;95935.38;;;6.92;71.33
76611;BME280;65503;48.534;9.062;2024-01-06T05:00:32;95927.28;;;6.94;71.72
76611;BME280;65503;48.534;9.062;2024-01-06T05:03:02;95916.34;;;6.97;71.31
76611;BME280;65503;48.534;9.062;2024-01-06T05:05:29;95924.44;;;6.95;71.92
76611;BME280;65503;48.534;9.062;2024-01-06T05:07:55;95929.44;;;6.97;71.84
76611;BME280;65503;48.534;9.062;2024-01-06T05:10:22;95930.00;;;6.99;72.00
76611;BME280;65503;48.534;9.062;2024-01-06T05:12:48;95925.09;;;7.02;71.53
76611;BME280;65503;48.534;9.062;2024-01-06T05:15:15;95925.44;;;7.06;71.63
76611;BME280;65503;48.534;9.062;2024-01-06T05:17:42;95931.22;;;7.08;71.24
76611;BME280;65503;48.534;9.062;2024-01-06T05:20:09;95932.91;;;7.14;71.24
76611;BME280;65503;48.534;9.062;2024-01-06T05:22:35;95936.41;;;7.20;70.70
76611;BME280;65503;48.534;9.062;2024-01-06T05:25:02;95934.91;;;7.24;70.67
76611;BME280;65503;48.534;9.062;2024-01-06T05:27:29;95942.53;;;7.25;70.69
76611;BME280;65503;48.534;9.062;2024-01-06T05:29:56;95938.88;;;7.26;70.61
76611;BME280;65503;48.534;9.062;2024-01-06T05:32:22;95938.78;;;7.21;70.58
76611;BME280;65503;48.534;9.062;2024-01-06T05:34:49;95943.53;;;7.24;70.22
76611;BME280;65503;48.534;9.062;2024-01-06T05:37:16;95952.91;;;7.20;70.29
76611;BME280;65503;48.534;9.062;2024-01-06T05:39:42;95948.78;;;7.24;70.43
76611;BME280;65503;48.534;9.062;2024-01-06T05:42:09;95952.44;;;7.23;70.06
76611;BME280;65503;48.534;9.062;2024-01-06T05:44:39;95947.97;;;7.24;70.21
76611;BME280;65503;48.534;9.062;2024-01-06T05:47:05;95949.25;;;7.21;70.40
76611;BME280;65503;48.534;9.062;2024-01-06T05:49:32;95954.50;;;7.21;69.89
76611;BME280;65503;48.534;9.062;2024-01-06T05:51:58;95956.09;;;7.22;69.95
76611;BME280;65503;48.534;9.062;2024-01-06T05:54:25;95952.44;;;7.23;70.29
76611;BME280;65503;48.534;9.062;2024-01-06T05:56:52;95968.16;;;7.23;70.15
76611;BME280;65503;48.534;9.062;2024-01-06T05:59:18;95968.59;;;7.20;69.85
76611;BME280;65503;48.534;9.062;2024-01-06T06:01:45;95969.38;;;7.21;70.16
76611;BME280;65503;48.534;9.062;2024-01-06T06:04:12;95972.81;;;7.21;69.93
76611;BME280;65503;48.534;9.062;2024-01-06T06:06:38;95976.44;;;7.20;69.11
76611;BME280;65503;48.534;9.062;2024-01-06T06:09:05;95980.66;;;7.21;69.32
76611;BME280;65503;48.534;9.062;2024-01-06T06:11:33;95986.34;;;7.18;68.58
76611;BME280;65503;48.534;9.062;2024-01-06T06:14:00;95984.28;;;7.20;68.23
76611;BME280;65503;48.534;9.062;2024-01-06T06:16:29;95985.41;;;7.24;67.68
76611;BME280;65503;48.534;9.062;2024-01-06T06:18:56;95986.06;;;7.31;68.11
76611;BME280;65503;48.534;9.062;2024-01-06T06:21:22;95976.41;;;7.32;66.37
76611;BME280;65503;48.534;9.062;2024-01-06T06:23:49;95989.16;;;7.28;66.54
76611;BME280;65503;48.534;9.062;2024-01-06T06:26:16;95997.56;;;7.30;66.83
76611;BME280;65503;48.534;9.062;2024-01-06T06:28:42;96003.38;;;7.32;66.66
76611;BME280;65503;48.534;9.062;2024-01-06T06:31:09;96002.88;;;7.35;66.98
76611;BME280;65503;48.534;9.062;2024-01-06T06:33:36;96002.44;;;7.38;66.67
76611;BME280;65503;48.534;9.062;2024-01-06T06:36:03;96006.06;;;7.37;66.62
76611;BME280;65503;48.534;9.062;2024-01-06T06:38:30;96009.28;;;7.39;66.87
76611;BME280;65503;48.534;9.062;2024-01-06T06:40:56;96009.72;;;7.36;67.15
76611;BME280;65503;48.534;9.062;2024-01-06T06:43:23;96019.06;;;7.32;65.95
76611;BME280;65503;48.534;9.062;2024-01-06T06:45:49;96024.06;;;7.34;64.99
76611;BME280;65503;48.534;9.062;2024-01-06T06:48:16;96020.97;;;7.37;64.60
76611;BME280;65503;48.534;9.062;2024-01-06T06:50:42;96022.91;;;7.41;64.94
76611;BME280;65503;48.534;9.062;2024-01-06T06:53:09;96021.31;;;7.40;64.42
76611;BME280;65503;48.534;9.062;2024-01-06T06:55:36;96019.38;;;7.36;64.42
76611;BME280;65503;48.534;9.062;2024-01-06T06:58:04;96028.59;;;7.38;64.12
76611;BME280;65503;48.534;9.062;2024-01-06T07:00:32;96021.31;;;7.40;64.85
76611;BME280;65503;48.534;9.062;2024-01-06T07:02:58;96023.25;;;7.45;64.10
76611;BME280;65503;48.534;9.062;2024-01-06T07:05:25;96026.09;;;7.43;63.57
76611;BME280;65503;48.534;9.062;2024-01-06T07:07:52;96024.50;;;7.42;62.66
76611;BME280;65503;48.534;9.062;2024-01-06T07:10:18;96028.13;;;7.41;62.70
76611;BME280;65503;48.534;9.062;2024-01-06T07:12:45;96039.06;;;7.38;63.29
76611;BME280;65503;48.534;9.062;2024-01-06T07:15:11;96038.16;;;7.44;63.50
76611;BME280;65503;48.534;9.062;2024-01-06T07:17:38;96034.03;;;7.48;62.33
76611;BME280;65503;48.534;9.062;2024-01-06T07:20:06;96032.91;;;7.44;62.48
76611;BME280;65503;48.534;9.062;2024-01-06T07:22:33;96033.22;;;7.48;62.51
76611;BME280;65503;48.534;9.062;2024-01-06T07:25:01;96036.06;;;7.46;62.77
76611;BME280;65503;48.534;9.062;2024-01-06T07:27:28;96039.75;;;7.45;61.38
76611;BME280;65503;48.534;9.062;2024-01-06T07:29:54;96043.84;;;7.41;61.70
76611;BME280;65503;48.534;9.062;2024-01-06T07:32:22;96049.06;;;7.41;62.09
76611;BME280;65503;48.534;9.062;2024-01-06T07:34:49;96049.41;;;7.45;62.94
76611;BME280;65503;48.534;9.062;2024-01-06T07:37:16;96055.91;;;7.42;63.50
76611;BME280;65503;48.534;9.062;2024-01-06T07:39:42;96052.69;;;7.40;63.06
76611;BME280;65503;48.534;9.062;2024-01-06T07:42:09;96055.22;;;7.35;62.98
76611;BME280;65503;48.534;9.062;2024-01-06T07:44:35;96057.94;;;7.40;63.03
76611;BME280;65503;48.534;9.062;2024-01-06T07:47:02;96060.34;;;7.42;63.23
76611;BME280;65503;48.534;9.062;2024-01-06T07:49:31;96061.59;;;7.39;63.89
76611;BME280;65503;48.534;9.062;2024-01-06T07:51:58;96057.50;;;7.43;63.17
76611;BME280;65503;48.534;9.062;2024-01-06T07:54:25;96057.50;;;7.43;63.11
76611;BME280;65503;48.534;9.062;2024-01-06T07:56:51;96059.75;;;7.52;63.48
76611;BME280;65503;48.534;9.062;2024-01-06T07:59:18;96073.38;;;7.54;63.40
76611;BME280;65503;48.534;9.062;2024-01-06T08:01:44;96078.19;;;7.57;63.22
76611;BME280;65503;48.534;9.062;2024-01-06T08:04:11;96068.34;;;7.64;63.24
76611;BME280;65503;48.534;9.062;2024-01-06T08:06:37;96070.75;;;7.65;63.10
76611;BME280;65503;48.534;9.062;2024-01-06T08:09:04;96065.84;;;7.69;63.16
76611;BME280;65503;48.534;9.062;2024-01-06T08:11:30;96063.22;;;7.69;64.13
76611;BME280;65503;48.534;9.062;2024-01-06T08:13:57;96067.38;;;7.81;64.06
76611;BME280;65503;48.534;9.062;2024-01-06T08:16:23;96069.06;;;7.87;64.31
76611;BME280;65503;48.534;9.062;2024-01-06T08:18:50;96078.81;;;7.92;64.58
76611;BME280;65503;48.534;9.062;2024-01-06T08:21:16;96083.38;;;7.97;64.56
76611;BME280;65503;48.534;9.062;2024-01-06T08:23:43;96079.41;;;7.94;64.41
76611;BME280;65503;48.534;9.062;2024-01-06T08:26:09;96080.50;;;7.98;64.41
76611;BME280;65503;48.534;9.062;2024-01-06T08:28:39;96081.66;;;8.02;64.23
76611;BME280;65503;48.534;9.062;2024-01-06T08:31:05;96089.41;;;7.97;64.10
76611;BME280;65503;48.534;9.062;2024-01-06T08:33:32;96084.06;;;7.92;63.52
76611;BME280;65503;48.534;9.062;2024-01-06T08:35:59;96079.63;;;7.93;64.11
76611;BME280;65503;48.534;9.062;2024-01-06T08:38:26;96087.72;;;7.91;65.10
76611;BME280;65503;48.534;9.062;2024-01-06T08:40:52;96087.16;;;7.89;64.71
76611;BME280;65503;48.534;9.062;2024-01-06T08:43:20;96082.72;;;7.89;64.88
76611;BME280;65503;48.534;9.062;2024-01-06T08:45:46;96088.75;;;7.90;64.41
76611;BME280;65503;48.534;9.062;2024-01-06T08:48:14;96090.66;;;7.95;63.95
76611;BME280;65503;48.534;9.062;2024-01-06T08:50:42;96095.09;;;7.94;63.74
76611;BME280;65503;48.534;9.062;2024-01-06T08:53:08;96098.31;;;7.96;63.78
76611;BME280;65503;48.534;9.062;2024-01-06T08:55:35;96096.44;;;8.08;63.53
76611;BME280;65503;48.534;9.062;2024-01-06T08:58:02;96103.75;;;8.23;63.85
76611;BME280;65503;48.534;9.062;2024-01-06T09:00:28;96100.63;;;8.38;62.49
76611;BME280;65503;48.534;9.062;2024-01-06T09:02:55;96105.72;;;8.44;61.92
76611;BME280;65503;48.534;9.062;2024-01-06T09:05:22;96100.88;;;8.53;61.16
76611;BME280;65503;48.534;9.062;2024-01-06T09:07:49;96106.53;;;8.61;61.27
76611;BME280;65503;48.534;9.062;2024-01-06T09:10:20;96110.34;;;8.70;59.06
76611;BME280;65503;48.534;9.062;2024-01-06T09:12:47;96106.59;;;8.66;58.10
76611;BME280;65503;48.534;9.062;2024-01-06T09:15:14;96104.31;;;8.70;58.19
76611;BME280;65503;48.534;9.062;2024-01-06T09:17:41;96108.13;;;8.79;57.07
76611;BME280;65503;48.534;9.062;2024-01-06T09:20:08;96109.06;;;8.73;56.61
76611;BME280;65503;48.534;9.062;2024-01-06T09:22:34;96110.50;;;8.64;57.37
76611;BME280;65503;48.534;9.062;2024-01-06T09:25:01;96121.06;;;8.69;56.62
76611;BME280;65503;48.534;9.062;2024-01-06T09:27:27;96123.13;;;8.67;56.19
76611;BME280;65503;48.534;9.062;2024-01-06T09:29:54;96128.94;;;8.69;55.88
76611;BME280;65503;48.534;9.062;2024-01-06T09:32:20;96130.47;;;8.65;55.33
76611;BME280;65503;48.534;9.062;2024-01-06T09:34:49;96125.13;;;8.60;56.03
76611;BME280;65503;48.534;9.062;2024-01-06T09:37:16;96131.47;;;8.64;55.95
76611;BME280;65503;48.534;9.062;2024-01-06T09:39:42;96125.88;;;8.15;56.63
76611;BME280;65503;48.534;9.062;2024-01-06T09:42:09;96132.63;;;8.11;57.42
76611;BME280;65503;48.534;9.062;2024-01-06T09:44:37;96127.41;;;8.28;57.21
76611;BME280;65503;48.534;9.062;2024-01-06T09:47:03;96131.47;;;8.47;57.02
76611;BME280;65503;48.534;9.062;2024-01-06T09:49:32;96138.00;;;8.61;55.96
76611;BME280;65503;48.534;9.062;2024-01-06T09:52:01;96141.47;;;8.67;56.90
76611;BME280;65503;48.534;9.062;2024-01-06T09:54:30;96140.81;;;8.88;57.24
76611;BME280;65503;48.534;9.062;2024-01-06T09:57:01;96140.31;;;8.91;56.57
76611;BME280;65503;48.534;9.062;2024-01-06T09:59:30;96139.72;;;9.06;57.42
76611;BME280;65503;48.534;9.062;2024-01-06T10:02:00;96143.56;;;8.98;56.47
76611;BME280;65503;48.534;9.062;2024-01-06T10:04:27;96149.28;;;9.12;56.78
76611;BME280;65503;48.534;9.062;2024-01-06T10:06:54;96143.84;;;9.19;56.97
76611;BME280;65503;48.534;9.062;2024-01-06T10:09:28;96145.16;;;8.99;56.38
76611;BME280;65503;48.534;9.062;2024-01-06T10:11:55;96139.41;;;8.36;56.26
76611;BME280;65503;48.534;9.062;2024-01-06T10:14:24;96141.31;;;8.57;57.38
76611;BME280;65503;48.534;9.062;2024-01-06T10:16:52;96131.16;;;8.77;56.51
76611;BME280;65503;48.534;9.062;2024-01-06T10:19:19;96137.91;;;8.73;55.77
76611;BME280;65503;48.534;9.062;2024-01-06T10:21:45;96134.84;;;8.76;55.53
76611;BME280;65503;48.534;9.062;2024-01-06T10:24:12;96147.53;;;8.84;56.90
76611;BME280;65503;48.534;9.062;2024-01-06T10:26:40;96143.50;;;8.93;56.46
76611;BME280;65503;48.534;9.062;2024-01-06T10:29:06;96150.16;;;9.01;56.06
76611;BME280;65503;48.534;9.062;2024-01-06T10:31:33;96137.91;;;9.06;57.20
76611;BME280;65503;48.534;9.062;2024-01-06T10:34:00;96145.16;;;9.16;56.51
76611;BME280;65503;48.534;9.062;2024-01-06T10:36:26;96149.25;;;9.29;56.25
76611;BME280;65503;48.534;9.062;2024-01-06T10:38:54;96151.50;;;9.20;55.50
76611;BME280;65503;48.534;9.062;2024-01-06T10:41:21;96137.97;;;9.28;55.65
76611;BME280;65503;48.534;9.062;2024-01-06T10:43:51;96140.97;;;9.37;55.88
76611;BME280;65503;48.534;9.062;2024-01-06T10:46:22;96137.44;;;9.48;55.47
76611;BME280;65503;48.534;9.062;2024-01-06T10:48:49;96138.97;;;9.44;54.45
76611;BME280;65503;48.534;9.062;2024-01-06T10:51:17;96139.38;;;9.36;55.11
76611;BME280;65503;48.534;9.062;2024-01-06T10:53:44;96143.59;;;9.37;54.75
76611;BME280;65503;48.534;9.062;2024-01-06T10:56:10;96142.75;;;9.15;55.15
76611;BME280;65503;48.534;9.062;2024-01-06T10:58:44;96146.72;;;9.17;55.69
76611;BME280;65503;48.534;9.062;2024-01-06T11:01:13;96143.47;;;9.27;55.36
76611;BME280;65503;48.534;9.062;2024-01-06T11:03:45;96139.88;;;9.33;55.79
76611;BME280;65503;48.534;9.062;2024-01-06T11:06:12;96132.00;;;9.33;55.54
76611;BME280;65503;48.534;9.062;2024-01-06T11:08:52;96137.31;;;9.38;54.53
76611;BME280;65503;48.534;9.062;2024-01-06T11:11:21;96136.34;;;9.44;54.73
76611;BME280;65503;48.534;9.062;2024-01-06T11:13:49;96138.00;;;9.50;54.93
76611;BME280;65503;48.534;9.062;2024-01-06T11:16:36;96142.25;;;9.18;54.82
76611;BME280;65503;48.534;9.062;2024-01-06T11:22:25;96127.19;;;9.08;55.38
76611;BME280;65503;48.534;9.062;2024-01-06T11:24:55;96134.66;;;9.16;55.82
76611;BME280;65503;48.534;9.062;2024-01-06T11:27:26;96122.81;;;9.35;55.02
76611;BME280;65503;48.534;9.062;2024-01-06T11:30:01;96124.72;;;9.40;54.42
76611;BME280;65503;48.534;9.062;2024-01-06T11:32:33;96126.47;;;9.51;53.91
76611;BME280;65503;48.534;9.062;2024-01-06T11:35:07;96121.44;;;9.28;54.13
76611;BME280;65503;48.534;9.062;2024-01-06T11:40:10;96105.69;;;9.28;55.39
76611;BME280;65503;48.534;9.062;2024-01-06T11:42:45;96114.97;;;9.57;55.03
76611;BME280;65503;48.534;9.062;2024-01-06T11:45:13;96111.34;;;9.41;55.06
76611;BME280;65503;48.534;9.062;2024-01-06T11:47:40;96102.59;;;9.14;55.43
76611;BME280;65503;48.534;9.062;2024-01-06T11:50:13;96108.34;;;8.94;55.82
76611;BME280;65503;48.534;9.062;2024-01-06T11:52:41;96100.66;;;8.71;57.13
76611;BME280;65503;48.534;9.062;2024-01-06T11:55:09;96104.78;;;8.67;57.82
76611;BME280;65503;48.534;9.062;2024-01-06T11:57:36;96100.31;;;8.84;56.65
76611;BME280;65503;48.534;9.062;2024-01-06T12:00:04;96103.19;;;8.99;56.74
76611;BME280;65503;48.534;9.062;2024-01-06T12:02:30;96102.75;;;9.07;56.94
76611;BME280;65503;48.534;9.062;2024-01-06T12:04:57;96105.00;;;9.16;56.65
76611;BME280;65503;48.534;9.062;2024-01-06T12:07:23;96100.56;;;9.38;56.15
76611;BME280;65503;48.534;9.062;2024-01-06T12:09:52;96098.84;;;9.48;55.32
76611;BME280;65503;48.534;9.062;2024-01-06T12:12:26;96100.97;;;9.51;55.54
76611;BME280;65503;48.534;9.062;2024-01-06T12:14:53;96102.22;;;9.44;54.91
76611;BME280;65503;48.534;9.062;2024-01-06T12:17:21;96098.41;;;9.35;55.95
76611;BME280;65503;48.534;9.062;2024-01-06T12:19:48;96097.31;;;9.31;55.88
76611;BME280;65503;48.534;9.062;2024-01-06T12:22:15;96101.75;;;9.30;55.99
76611;BME280;65503;48.534;9.062;2024-01-06T12:24:42;96098.91;;;9.32;55.86
76611;BME280;65503;48.534;9.062;2024-01-06T12:27:09;96092.47;;;9.23;56.14
76611;BME280;65503;48.534;9.062;2024-01-06T12:29:40;96093.59;;;9.27;56.05
76611;BME280;65503;48.534;9.062;2024-01-06T12:32:07;96090.41;;;9.25;55.58
76611;BME280;65503;48.534;9.062;2024-01-06T12:34:34;96088.00;;;9.23;55.86
76611;BME280;65503;48.534;9.062;2024-01-06T12:37:02;96086.25;;;9.29;55.97
76611;BME280;65503;48.534;9.062;2024-01-06T12:39:29;96078.47;;;9.34;55.72
76611;BME280;65503;48.534;9.062;2024-01-06T12:41:56;96075.91;;;9.39;55.95
76611;BME280;65503;48.534;9.062;2024-01-06T12:44:23;96081.75;;;9.46;55.24
76611;BME280;65503;48.534;9.062;2024-01-06T12:46:49;96081.19;;;9.66;55.49
76611;BME280;65503;48.534;9.062;2024-01-06T12:49:16;96082.41;;;9.80;55.53
76611;BME280;65503;48.534;9.062;2024-01-06T12:51:42;96072.91;;;10.01;54.48
76611;BME280;65503;48.534;9.062;2024-01-06T12:54:09;96071.25;;;10.16;54.56
76611;BME280;65503;48.534;9.062;2024-01-06T12:56:35;96065.09;;;10.06;54.02
76611;BME280;65503;48.534;9.062;2024-01-06T12:59:02;96075.50;;;9.95;54.51
76611;BME280;65503;48.534;9.062;2024-01-06T13:01:29;96072.09;;;9.73;54.53
76611;BME280;65503;48.534;9.062;2024-01-06T13:03:56;96079.44;;;9.71;54.67
76611;BME280;65503;48.534;9.062;2024-01-06T13:06:25;96077.28;;;9.68;55.18
76611;BME280;65503;48.534;9.062;2024-01-06T13:08:53;96074.81;;;9.57;55.70
76611;BME280;65503;48.534;9.062;2024-01-06T13:11:19;96076.50;;;9.46;55.53
76611;BME280;65503;48.534;9.062;2024-01-06T13:13:46;96083.84;;;9.44;55.97
76611;BME280;65503;48.534;9.062;2024-01-06T13:16:12;96086.41;;;9.39;56.14